createdAt,value
2022-09-16T00:00:28.535Z,79.91
2022-09-16T00:02:56.789Z,80.15
2022-09-16T00:05:23.465Z,80.07
2022-09-16T00:07:50.638Z,79.76
2022-09-16T00:10:17.451Z,79.47
2022-09-16T00:12:44.257Z,79.62
2022-09-16T00:15:11.082Z,78.88
2022-09-16T00:17:37.702Z,78.47
2022-09-16T00:20:05.618Z,79.31
2022-09-16T00:22:33.095Z,78.33
2022-09-16T00:24:59.825Z,78.62
2022-09-16T00:27:26.630Z,78.27
2022-09-16T00:29:53.209Z,78.57
2022-09-16T00:32:19.860Z,79.19
2022-09-16T00:34:46.618Z,78.13
2022-09-16T00:37:13.346Z,78.05
2022-09-16T00:39:39.928Z,77.92
2022-09-16T00:42:06.854Z,78.88
2022-09-16T00:44:52.149Z,78.51
2022-09-16T00:47:30.612Z,79.08
2022-09-16T00:50:03.396Z,78.91
2022-09-16T00:52:31.213Z,78.72
2022-09-16T00:55:00.846Z,77.78
2022-09-16T00:57:27.531Z,78.27
2022-09-16T00:59:55.625Z,78.48
2022-09-16T01:02:23.917Z,78.38
2022-09-16T01:05:02.521Z,79.17
2022-09-16T01:07:42.003Z,78.82
2022-09-16T01:10:09.608Z,78.79
2022-09-16T01:12:36.899Z,79.17
2022-09-16T01:15:05.752Z,78.77
2022-09-16T01:18:00.078Z,78.61
2022-09-16T01:20:42.403Z,78.37
2022-09-16T01:23:47.018Z,78.15
2022-09-16T01:26:22.618Z,77.39
2022-09-16T01:29:11.176Z,77.22
2022-09-16T01:31:52.937Z,77.53
2022-09-16T01:34:26.482Z,75.57
2022-09-16T01:36:59.113Z,75.51
2022-09-16T01:39:48.179Z,75.20
2022-09-16T01:42:38.289Z,75.00
2022-09-16T01:45:45.513Z,75.89
2022-09-16T01:48:36.709Z,75.99
2022-09-16T01:51:25.956Z,76.97
2022-09-16T01:54:18.989Z,77.58
2022-09-16T01:57:01.917Z,78.54
2022-09-16T02:00:00.992Z,79.14
2022-09-16T02:02:35.812Z,79.31
2022-09-16T02:05:08.680Z,78.61
2022-09-16T02:07:39.669Z,78.97
2022-09-16T02:10:18.450Z,78.92
2022-09-16T02:12:46.841Z,78.28
2022-09-16T02:15:17.804Z,78.14
2022-09-16T02:17:52.564Z,77.46
2022-09-16T02:20:26.106Z,77.33
2022-09-16T02:22:59.941Z,77.04
2022-09-16T02:25:29.240Z,77.18
2022-09-16T02:27:59.863Z,77.50
2022-09-16T02:30:26.609Z,77.46
2022-09-16T02:33:00.623Z,78.12
2022-09-16T02:35:28.373Z,77.67
2022-09-16T02:38:02.944Z,77.78
2022-09-16T02:40:37.999Z,77.56
2022-09-16T02:43:04.872Z,77.29
2022-09-16T02:45:46.587Z,77.38
2022-09-16T02:48:18.503Z,77.84
2022-09-16T02:50:53.573Z,78.70
2022-09-16T02:53:36.590Z,79.27
2022-09-16T02:56:12.001Z,79.12
2022-09-16T02:58:38.763Z,78.46
2022-09-16T03:01:06.150Z,78.54
2022-09-16T03:03:33.121Z,77.92
2022-09-16T03:06:08.828Z,78.62
2022-09-16T03:08:37.115Z,78.86
2022-09-16T03:11:15.895Z,78.56
2022-09-16T03:14:08.521Z,78.06
2022-09-16T03:16:53.782Z,77.71
2022-09-16T03:19:44.659Z,77.49
2022-09-16T03:22:17.087Z,77.27
2022-09-16T03:25:15.743Z,77.28
2022-09-16T03:28:12.218Z,76.94
2022-09-16T03:31:02.866Z,76.41
2022-09-16T03:33:38.842Z,76.69
2022-09-16T03:36:09.527Z,78.18
2022-09-16T03:38:38.928Z,77.92
2022-09-16T03:41:07.257Z,78.16
2022-09-16T03:43:34.078Z,78.57
2022-09-16T03:46:03.812Z,77.97
2022-09-16T03:48:30.500Z,77.83
2022-09-16T03:50:57.630Z,78.05
2022-09-16T03:53:24.387Z,78.56
2022-09-16T03:55:50.996Z,78.37
2022-09-16T03:58:17.690Z,78.06
2022-09-16T04:00:48.785Z,77.25
2022-09-16T04:03:15.449Z,77.58
2022-09-16T04:05:42.204Z,77.05
2022-09-16T04:08:08.924Z,77.34
2022-09-16T04:10:35.576Z,77.40
2022-09-16T04:13:02.278Z,77.76
2022-09-16T04:15:28.914Z,77.99
2022-09-16T04:17:55.702Z,78.79
2022-09-16T04:20:22.368Z,79.05
2022-09-16T04:22:49.050Z,78.97
2022-09-16T04:25:15.643Z,78.94
2022-09-16T04:27:42.468Z,79.27
2022-09-16T04:30:09.875Z,79.66
2022-09-16T04:32:36.522Z,79.95
2022-09-16T04:35:03.579Z,79.13
2022-09-16T04:37:30.901Z,78.97
2022-09-16T04:40:00.979Z,79.60
2022-09-16T04:42:30.627Z,79.00
2022-09-16T04:44:57.259Z,79.65
2022-09-16T04:47:23.903Z,79.91
2022-09-16T04:49:53.585Z,79.96
2022-09-16T04:52:20.251Z,79.79
2022-09-16T04:54:46.943Z,80.40
2022-09-16T04:57:13.849Z,80.92
2022-09-16T04:59:40.424Z,80.69
2022-09-16T05:02:07.289Z,80.20
2022-09-16T05:04:33.937Z,79.92
2022-09-16T05:07:00.569Z,79.82
2022-09-16T05:09:27.138Z,79.35
2022-09-16T05:11:54.158Z,79.47
2022-09-16T05:14:20.722Z,79.18
2022-09-16T05:16:47.486Z,79.46
2022-09-16T05:19:14.628Z,79.29
2022-09-16T05:21:42.188Z,80.18
2022-09-16T05:24:10.712Z,79.36
2022-09-16T05:26:40.521Z,79.72
2022-09-16T05:29:10.668Z,79.69
2022-09-16T05:31:39.603Z,79.97
2022-09-16T05:34:17.715Z,80.12
2022-09-16T05:36:46.009Z,81.27
2022-09-16T05:39:28.195Z,80.78
2022-09-16T05:41:57.721Z,81.00
2022-09-16T05:44:25.362Z,80.68
2022-09-16T05:46:53.435Z,80.83
2022-09-16T05:49:20.220Z,80.29
2022-09-16T05:51:48.393Z,81.58
2022-09-16T05:54:15.317Z,81.10
2022-09-16T05:56:42.069Z,80.42
2022-09-16T05:59:12.021Z,80.67
2022-09-16T06:01:39.499Z,79.45
2022-09-16T06:04:10.607Z,77.99
2022-09-16T06:06:42.295Z,78.13
2022-09-16T06:09:10.478Z,77.64
2022-09-16T06:11:39.735Z,78.55
2022-09-16T06:14:07.564Z,78.28
2022-09-16T06:16:35.227Z,78.88
2022-09-16T06:19:04.803Z,78.82
2022-09-16T06:21:31.426Z,78.95
2022-09-16T06:23:58.400Z,80.22
2022-09-16T06:26:26.746Z,80.88
2022-09-16T06:28:54.086Z,80.06
2022-09-16T06:31:24.570Z,79.52
2022-09-16T06:33:52.293Z,79.56
2022-09-16T06:36:22.176Z,79.33
2022-09-16T06:38:49.946Z,79.08
2022-09-16T06:41:18.264Z,79.08
2022-09-16T06:43:45.919Z,79.57
2022-09-16T06:46:19.915Z,79.78
2022-09-16T06:48:48.830Z,78.97
2022-09-16T06:51:22.415Z,78.90
2022-09-16T06:53:50.196Z,77.61
2022-09-16T06:56:19.168Z,78.93
2022-09-16T06:58:49.854Z,78.22
2022-09-16T07:01:23.246Z,79.02
2022-09-16T07:03:52.300Z,78.47
2022-09-16T07:06:20.718Z,77.67
2022-09-16T07:08:48.082Z,77.28
2022-09-16T07:11:20.281Z,77.58
2022-09-16T07:13:48.974Z,76.02
2022-09-16T07:16:18.613Z,75.36
2022-09-16T07:18:46.013Z,75.31
2022-09-16T07:21:21.207Z,75.46
2022-09-16T07:23:47.899Z,75.40
2022-09-16T07:26:20.158Z,75.35
2022-09-16T07:28:49.038Z,75.77
2022-09-16T07:31:19.412Z,75.64
2022-09-16T07:33:49.263Z,75.04
2022-09-16T07:36:24.867Z,76.43
2022-09-16T07:38:52.626Z,75.77
2022-09-16T07:41:22.171Z,75.41
2022-09-16T07:43:50.226Z,75.48
2022-09-16T07:46:18.484Z,75.43
2022-09-16T07:48:48.982Z,75.13
2022-09-16T07:51:21.506Z,75.55
2022-09-16T07:53:49.102Z,76.02
2022-09-16T07:56:19.425Z,75.33
2022-09-16T07:58:47.362Z,73.35
2022-09-16T08:01:16.192Z,73.40
2022-09-16T08:03:44.665Z,73.70
2022-09-16T08:06:14.771Z,72.83
2022-09-16T08:08:42.152Z,73.98
2022-09-16T08:11:09.429Z,73.87
2022-09-16T08:13:37.782Z,73.31
2022-09-16T08:16:10.822Z,71.70
2022-09-16T08:18:38.103Z,72.59
2022-09-16T08:21:06.941Z,72.60
2022-09-16T08:23:35.015Z,72.19
2022-09-16T08:26:02.193Z,71.78
2022-09-16T08:28:39.879Z,71.22
2022-09-16T08:31:17.730Z,71.00
2022-09-16T08:33:44.822Z,69.83
2022-09-16T08:36:17.802Z,71.47
2022-09-16T08:38:45.205Z,71.05
2022-09-16T08:41:46.108Z,69.71
2022-09-16T08:44:42.210Z,70.22
2022-09-16T08:47:42.979Z,69.68
2022-09-16T08:50:26.014Z,70.30
2022-09-16T08:52:56.950Z,69.45
2022-09-16T08:55:32.794Z,67.47
2022-09-16T08:58:10.901Z,68.84
2022-09-16T09:00:39.269Z,67.38
2022-09-16T09:03:34.937Z,67.15
2022-09-16T09:06:06.589Z,66.43
2022-09-16T09:08:45.373Z,65.80
2022-09-16T09:11:30.619Z,67.56
2022-09-16T09:14:22.178Z,70.06
2022-09-16T09:17:18.823Z,68.18
2022-09-16T09:20:09.912Z,65.81
2022-09-16T09:22:36.877Z,63.49
2022-09-16T09:25:06.339Z,61.71
2022-09-16T09:27:48.239Z,61.43
2022-09-16T09:30:23.746Z,61.95
2022-09-16T09:33:41.324Z,62.81
2022-09-16T09:36:32.715Z,62.88
2022-09-16T09:39:13.601Z,60.83
2022-09-16T09:41:46.574Z,61.70
2022-09-16T09:44:38.037Z,61.94
2022-09-16T09:47:12.517Z,61.36
2022-09-16T09:49:46.603Z,61.93
2022-09-16T09:52:32.492Z,60.79
2022-09-16T09:55:16.163Z,59.84
2022-09-16T09:58:11.139Z,61.19
2022-09-16T10:00:38.385Z,60.77
2022-09-16T10:03:17.245Z,59.41
2022-09-16T10:05:46.041Z,60.05
2022-09-16T10:08:29.948Z,59.65
2022-09-16T10:11:02.039Z,59.60
2022-09-16T10:13:30.249Z,59.29
2022-09-16T10:16:14.717Z,60.26
2022-09-16T10:18:42.351Z,63.76
2022-09-16T10:21:15.360Z,66.66
2022-09-16T10:23:54.120Z,69.86
2022-09-16T10:26:26.957Z,71.81
2022-09-16T10:29:16.092Z,73.64
2022-09-16T10:31:43.546Z,76.52
2022-09-16T10:34:33.569Z,77.02
2022-09-16T10:37:10.349Z,77.75
2022-09-16T10:39:39.482Z,77.87
2022-09-16T10:42:17.204Z,78.24
2022-09-16T10:44:44.095Z,80.59
2022-09-16T10:47:21.923Z,78.95
2022-09-16T10:49:54.581Z,77.21
2022-09-16T10:52:27.385Z,75.51
2022-09-16T10:54:54.966Z,76.52
2022-09-16T10:57:27.413Z,75.12
2022-09-16T11:00:17.467Z,75.41
2022-09-16T11:03:18.417Z,73.88
2022-09-16T11:05:56.348Z,73.32
2022-09-16T11:08:43.998Z,72.41
2022-09-16T11:11:28.632Z,71.70
2022-09-16T11:13:55.239Z,70.83
2022-09-16T11:16:27.834Z,67.86
2022-09-16T11:19:12.690Z,68.26
2022-09-16T11:21:59.194Z,67.63
2022-09-16T11:24:47.979Z,67.21
2022-09-16T11:27:45.332Z,67.54
2022-09-16T11:30:14.550Z,67.26
2022-09-16T11:33:02.585Z,68.39
2022-09-16T11:35:40.126Z,66.36
2022-09-16T11:38:27.896Z,65.28
2022-09-16T11:41:09.120Z,64.72
2022-09-16T11:43:59.904Z,65.53
2022-09-16T11:46:50.204Z,66.98
2022-09-16T11:49:38.308Z,61.79
2022-09-16T11:52:13.777Z,59.64
2022-09-16T11:55:17.215Z,60.76
2022-09-16T11:57:57.080Z,59.77
2022-09-16T12:00:23.985Z,58.41
2022-09-16T12:03:25.986Z,57.65
2022-09-16T12:05:59.176Z,61.46
2022-09-16T12:08:54.073Z,60.31
2022-09-16T12:11:46.486Z,61.77
2022-09-16T12:14:25.909Z,60.98
2022-09-16T12:16:58.903Z,59.26
2022-09-16T12:19:41.066Z,56.79
2022-09-16T12:22:22.132Z,58.61
2022-09-16T12:24:57.795Z,56.86
2022-09-16T12:27:33.946Z,56.79
2022-09-16T12:30:03.934Z,56.70
2022-09-16T12:32:52.147Z,56.29
2022-09-16T12:36:08.536Z,56.83
2022-09-16T12:38:35.462Z,56.95
2022-09-16T12:41:11.199Z,57.17
2022-09-16T12:44:33.077Z,54.93
2022-09-16T12:47:38.842Z,56.46
2022-09-16T12:50:14.253Z,52.54
2022-09-16T12:53:02.477Z,55.17
2022-09-16T12:55:35.223Z,51.43
2022-09-16T12:58:04.660Z,54.33
2022-09-16T13:00:34.317Z,52.27
2022-09-16T13:03:10.441Z,52.01
2022-09-16T13:05:39.412Z,51.61
2022-09-16T13:08:25.434Z,52.05
2022-09-16T13:11:19.303Z,51.31
2022-09-16T13:13:52.522Z,51.65
2022-09-16T13:16:38.076Z,49.86
2022-09-16T13:19:30.058Z,51.32
2022-09-16T13:22:39.276Z,49.97
2022-09-16T13:25:25.270Z,49.06
2022-09-16T13:28:33.473Z,50.47
2022-09-16T13:31:12.526Z,51.57
2022-09-16T13:33:45.016Z,50.72
2022-09-16T13:36:16.882Z,49.24
2022-09-16T13:38:48.213Z,47.36
2022-09-16T13:41:28.683Z,47.75
2022-09-16T13:43:55.557Z,49.83
2022-09-16T13:46:38.154Z,47.89
2022-09-16T13:49:15.651Z,46.90
2022-09-16T13:51:45.104Z,47.78
2022-09-16T13:55:06.300Z,47.79
2022-09-16T13:57:45.879Z,44.86
2022-09-16T14:00:12.703Z,45.57
2022-09-16T14:02:57.875Z,45.97
2022-09-16T14:05:30.634Z,49.16
2022-09-16T14:08:22.117Z,45.97
2022-09-16T14:11:07.283Z,50.82
2022-09-16T14:13:51.060Z,48.90
2022-09-16T14:16:24.772Z,47.19
2022-09-16T14:19:25.230Z,47.90
2022-09-16T14:22:27.705Z,44.73
2022-09-16T14:25:05.978Z,47.64
2022-09-16T14:27:40.204Z,46.70
2022-09-16T14:30:18.587Z,46.31
2022-09-16T14:32:47.425Z,46.58
2022-09-16T14:35:21.537Z,48.66
2022-09-16T14:37:57.231Z,48.24
2022-09-16T14:40:25.759Z,49.50
2022-09-16T14:42:58.248Z,49.86
2022-09-16T14:45:25.117Z,48.90
2022-09-16T14:47:54.031Z,49.04
2022-09-16T14:50:27.191Z,49.47
2022-09-16T14:52:55.508Z,49.75
2022-09-16T14:55:26.124Z,49.56
2022-09-16T14:57:53.010Z,50.94
2022-09-16T15:00:30.521Z,50.06
2022-09-16T15:03:20.380Z,51.37
2022-09-16T15:05:47.576Z,51.02
2022-09-16T15:08:19.929Z,52.22
2022-09-16T15:10:52.533Z,52.29
2022-09-16T15:13:22.830Z,51.97
2022-09-16T15:15:54.195Z,51.58
2022-09-16T15:18:32.136Z,52.35
2022-09-16T15:21:28.176Z,51.01
2022-09-16T15:23:58.625Z,49.28
2022-09-16T15:26:40.544Z,49.32
2022-09-16T15:29:24.937Z,45.74
2022-09-16T15:31:52.114Z,46.10
2022-09-16T15:34:20.363Z,46.69
2022-09-16T15:36:49.652Z,46.88
2022-09-16T15:39:33.980Z,48.75
2022-09-16T15:42:21.133Z,49.07
2022-09-16T15:44:50.241Z,46.35
2022-09-16T15:47:28.700Z,48.30
2022-09-16T15:50:07.272Z,48.47
2022-09-16T15:52:49.765Z,49.17
2022-09-16T15:55:40.541Z,46.87
2022-09-16T15:58:22.043Z,47.81
2022-09-16T16:01:12.935Z,48.31
2022-09-16T16:03:45.264Z,48.14
2022-09-16T16:06:12.752Z,49.37
2022-09-16T16:08:44.603Z,49.89
2022-09-16T16:11:22.009Z,47.90
2022-09-16T16:13:49.569Z,47.67
2022-09-16T16:16:17.276Z,47.80
2022-09-16T16:18:45.602Z,48.63
2022-09-16T16:21:14.542Z,48.14
2022-09-16T16:23:41.552Z,48.97
2022-09-16T16:26:10.306Z,47.76
2022-09-16T16:28:37.499Z,49.01
2022-09-16T16:31:08.093Z,48.14
2022-09-16T16:33:34.834Z,47.76
2022-09-16T16:36:01.614Z,48.44
2022-09-16T16:38:28.246Z,48.73
2022-09-16T16:40:54.807Z,50.41
2022-09-16T16:43:21.984Z,50.32
2022-09-16T16:45:58.041Z,50.41
2022-09-16T16:48:27.735Z,50.94
2022-09-16T16:50:59.795Z,50.76
2022-09-16T16:53:27.958Z,51.15
2022-09-16T16:55:55.156Z,52.17
2022-09-16T16:58:21.921Z,51.89
2022-09-16T17:00:48.509Z,51.27
2022-09-16T17:03:16.199Z,51.82
2022-09-16T17:05:42.904Z,52.56
2022-09-16T17:08:09.593Z,52.47
2022-09-16T17:10:36.417Z,52.25
2022-09-16T17:13:03.008Z,52.99
2022-09-16T17:15:29.687Z,52.52
2022-09-16T17:17:56.505Z,52.57
2022-09-16T17:20:23.101Z,52.73
2022-09-16T17:22:49.751Z,53.03
2022-09-16T17:25:16.436Z,53.60
2022-09-16T17:27:43.027Z,53.85
2022-09-16T17:30:10.099Z,54.25
2022-09-16T17:32:37.059Z,54.00
2022-09-16T17:35:03.809Z,54.24
2022-09-16T17:37:30.495Z,54.74
2022-09-16T17:39:57.179Z,54.49
2022-09-16T17:42:23.963Z,56.08
2022-09-16T17:44:50.605Z,55.33
2022-09-16T17:47:17.283Z,55.10
2022-09-16T17:49:43.856Z,56.10
2022-09-16T17:52:10.671Z,56.61
2022-09-16T17:54:37.439Z,55.75
2022-09-16T17:57:04.193Z,56.74
2022-09-16T17:59:30.860Z,56.77
2022-09-16T18:01:57.657Z,56.34
2022-09-16T18:04:24.365Z,56.39
2022-09-16T18:06:50.986Z,56.95
2022-09-16T18:09:17.644Z,57.59
2022-09-16T18:11:44.571Z,57.96
2022-09-16T18:14:12.923Z,57.94
2022-09-16T18:16:40.465Z,58.40
2022-09-16T18:19:08.817Z,59.80
2022-09-16T18:21:35.757Z,60.30
2022-09-16T18:24:04.430Z,60.07
2022-09-16T18:26:32.203Z,60.54
2022-09-16T18:29:16.671Z,60.32
2022-09-16T18:31:46.529Z,60.47
2022-09-16T18:34:14.288Z,60.96
2022-09-16T18:36:41.445Z,61.09
2022-09-16T18:39:12.444Z,61.58
2022-09-16T18:41:40.715Z,61.93
2022-09-16T18:44:17.707Z,61.93
2022-09-16T18:46:44.438Z,62.71
2022-09-16T18:49:12.957Z,62.99
2022-09-16T18:51:41.980Z,62.74
2022-09-16T18:54:13.204Z,63.01
2022-09-16T18:56:40.987Z,62.56
2022-09-16T18:59:22.134Z,63.19
2022-09-16T19:01:52.111Z,63.67
2022-09-16T19:04:21.627Z,63.96
2022-09-16T19:06:51.930Z,63.95
2022-09-16T19:09:20.704Z,64.09
2022-09-16T19:11:48.273Z,63.57
2022-09-16T19:14:14.991Z,63.12
2022-09-16T19:16:43.761Z,62.99
2022-09-16T19:19:13.160Z,62.39
2022-09-16T19:21:40.289Z,62.80
2022-09-16T19:24:10.858Z,64.04
2022-09-16T19:26:37.896Z,63.78
2022-09-16T19:29:06.507Z,64.50
2022-09-16T19:31:36.053Z,64.62
2022-09-16T19:34:04.789Z,65.15
2022-09-16T19:36:32.880Z,65.05
2022-09-16T19:38:59.922Z,64.68
2022-09-16T19:41:30.024Z,65.40
2022-09-16T19:43:59.479Z,66.41
2022-09-16T19:46:27.468Z,66.68
2022-09-16T19:48:55.512Z,66.40
2022-09-16T19:51:23.880Z,65.93
2022-09-16T19:53:53.099Z,66.88
2022-09-16T19:56:26.269Z,67.33
2022-09-16T19:58:54.101Z,67.56
2022-09-16T20:01:32.402Z,68.15
2022-09-16T20:03:59.971Z,68.51
2022-09-16T20:06:44.537Z,69.10
2022-09-16T20:09:12.886Z,69.10
2022-09-16T20:11:43.784Z,68.97
2022-09-16T20:14:16.935Z,69.26
2022-09-16T20:16:43.784Z,69.55
2022-09-16T20:19:13.446Z,69.92
2022-09-16T20:21:41.401Z,69.90
2022-09-16T20:24:14.955Z,70.54
2022-09-16T20:26:41.784Z,70.67
2022-09-16T20:29:08.538Z,70.55
2022-09-16T20:31:36.695Z,70.41
2022-09-16T20:34:04.995Z,70.27
2022-09-16T20:36:35.750Z,70.34
2022-09-16T20:39:03.352Z,71.43
2022-09-16T20:41:32.094Z,71.63
2022-09-16T20:43:59.507Z,71.39
2022-09-16T20:46:29.072Z,71.22
2022-09-16T20:48:58.147Z,70.20
2022-09-16T21:08:43.915Z,70.70
2022-09-16T21:11:14.459Z,70.98
2022-09-16T21:13:46.852Z,71.00
2022-09-16T21:16:15.692Z,71.03
2022-09-16T21:18:43.053Z,71.75
2022-09-16T21:21:13.993Z,72.04
2022-09-16T21:23:41.217Z,72.23
2022-09-16T21:26:16.379Z,72.16
2022-09-16T21:28:44.825Z,71.97
2022-09-16T21:31:13.799Z,71.76
2022-09-16T21:33:42.579Z,71.36
2022-09-16T21:36:10.723Z,71.60
2022-09-16T21:38:38.026Z,71.99
2022-09-16T21:41:06.929Z,71.86
2022-09-16T21:43:38.832Z,72.42
2022-09-16T21:46:10.000Z,71.89
2022-09-16T21:48:36.840Z,71.71
2022-09-16T21:51:06.151Z,71.86
2022-09-16T21:53:35.135Z,71.46
2022-09-16T21:56:03.399Z,72.75
2022-09-16T21:58:30.150Z,72.46
2022-09-16T22:01:19.524Z,73.00
2022-09-16T22:03:52.535Z,73.38
2022-09-16T22:06:19.450Z,74.36
2022-09-16T22:08:49.149Z,74.48
2022-09-16T22:11:18.620Z,74.78
2022-09-16T22:13:46.117Z,75.44
2022-09-16T22:16:24.533Z,74.06
2022-09-16T22:18:51.279Z,74.71
2022-09-16T22:21:17.958Z,74.74
2022-09-16T22:23:44.611Z,74.32
2022-09-16T22:26:13.753Z,75.20
2022-09-16T22:28:41.150Z,75.15
2022-09-16T22:31:17.096Z,75.37
2022-09-16T22:33:45.567Z,75.54
2022-09-16T22:36:14.799Z,75.12
2022-09-16T22:38:46.091Z,75.09
2022-09-16T22:41:13.740Z,75.11
2022-09-16T22:43:45.541Z,74.82
2022-09-16T22:46:14.872Z,74.53
2022-09-16T22:48:42.761Z,75.23
2022-09-16T22:51:11.732Z,74.53
2022-09-16T22:53:38.847Z,74.50
2022-09-16T22:56:09.586Z,74.32
2022-09-16T22:58:36.990Z,74.83
2022-09-16T23:01:10.355Z,75.28
2022-09-16T23:03:37.895Z,74.97
2022-09-16T23:06:08.854Z,74.88
2022-09-16T23:08:37.638Z,73.84
2022-09-16T23:11:06.479Z,73.76
2022-09-16T23:13:34.558Z,74.13
2022-09-16T23:16:04.438Z,74.42
2022-09-16T23:18:32.911Z,73.94
2022-09-16T23:21:02.197Z,75.04
2022-09-16T23:23:30.149Z,75.10
2022-09-16T23:25:57.310Z,75.28
2022-09-16T23:28:23.990Z,74.38
2022-09-16T23:30:50.717Z,75.34
2022-09-16T23:33:17.459Z,74.79
2022-09-16T23:35:50.321Z,74.79
2022-09-16T23:38:17.137Z,75.46
2022-09-16T23:40:43.799Z,74.99
2022-09-16T23:43:10.540Z,76.28
2022-09-16T23:45:37.624Z,77.18
2022-09-16T23:48:05.330Z,76.53
2022-09-16T23:50:31.928Z,77.08
2022-09-16T23:52:59.189Z,77.46
2022-09-16T23:55:26.583Z,77.23
2022-09-16T23:57:58.208Z,77.41
